createdAt,value
2023-01-10T00:00:11.180Z,14.80
2023-01-10T00:02:58.267Z,15.57
2023-01-10T00:05:45.427Z,14.90
2023-01-10T00:08:32.415Z,17.13
2023-01-10T00:11:37.783Z,15.50
2023-01-10T00:14:28.774Z,15.00
2023-01-10T00:17:15.731Z,15.47
2023-01-10T00:20:02.666Z,14.83
2023-01-10T00:22:51.074Z,14.83
2023-01-10T00:25:38.779Z,14.63
2023-01-10T00:28:25.794Z,13.97
2023-01-10T00:31:13.918Z,14.87
2023-01-10T00:34:00.908Z,13.30
2023-01-10T00:36:48.092Z,13.63
2023-01-10T00:39:35.079Z,13.43
2023-01-10T00:42:40.475Z,14.73
2023-01-10T00:45:27.684Z,14.03
2023-01-10T00:48:15.611Z,14.03
2023-01-10T00:51:03.622Z,15.17
2023-01-10T00:53:50.526Z,12.47
2023-01-10T00:56:38.199Z,13.43
2023-01-10T00:59:25.280Z,14.17
2023-01-10T01:02:12.304Z,12.60
2023-01-10T01:04:59.302Z,12.97
2023-01-10T01:07:51.565Z,11.10
2023-01-10T01:10:38.590Z,11.37
2023-01-10T01:13:26.120Z,11.27
2023-01-10T01:16:13.123Z,11.57
2023-01-10T01:19:00.429Z,11.80
2023-01-10T01:21:47.385Z,11.53
2023-01-10T01:24:34.384Z,11.53
2023-01-10T01:27:21.439Z,10.97
2023-01-10T01:30:10.001Z,10.83
2023-01-10T01:32:57.029Z,10.23
2023-01-10T01:35:45.875Z,10.33
2023-01-10T01:38:32.819Z,11.03
2023-01-10T01:41:38.300Z,9.03
2023-01-10T01:44:31.237Z,8.80
2023-01-10T01:47:26.977Z,9.17
2023-01-10T01:50:26.600Z,8.90
2023-01-10T01:53:44.974Z,7.43
2023-01-10T01:56:31.839Z,6.97
2023-01-10T01:59:30.602Z,7.20
2023-01-10T02:02:23.448Z,6.40
2023-01-10T02:05:13.818Z,5.07
2023-01-10T02:08:04.529Z,5.93
2023-01-10T02:11:10.833Z,4.83
2023-01-10T02:13:59.381Z,4.50
2023-01-10T02:16:46.465Z,4.67
2023-01-10T02:19:53.768Z,4.90
2023-01-10T02:23:05.541Z,3.80
2023-01-10T02:26:30.678Z,4.23
2023-01-10T02:29:56.084Z,3.80
2023-01-10T02:33:27.614Z,4.20
2023-01-10T02:36:27.850Z,4.83
2023-01-10T02:39:35.014Z,4.50
2023-01-10T02:42:42.600Z,4.13
2023-01-10T02:45:39.205Z,4.67
2023-01-10T02:48:26.274Z,5.07
2023-01-10T02:51:25.276Z,4.50
2023-01-10T02:54:25.510Z,5.07
2023-01-10T02:57:30.617Z,5.60
2023-01-10T03:00:17.520Z,5.30
2023-01-10T03:03:10.523Z,4.67
2023-01-10T03:06:18.812Z,5.50
2023-01-10T03:09:20.678Z,5.63
2023-01-10T03:12:17.965Z,5.80
2023-01-10T03:15:06.720Z,5.60
2023-01-10T03:17:58.579Z,5.40
2023-01-10T03:20:47.893Z,5.40
2023-01-10T03:23:35.425Z,5.60
2023-01-10T03:26:29.701Z,6.23
2023-01-10T03:29:24.431Z,5.53
2023-01-10T03:32:14.467Z,5.87
2023-01-10T03:35:03.578Z,6.73
2023-01-10T03:38:04.106Z,5.83
2023-01-10T03:41:01.770Z,5.37
2023-01-10T03:44:36.471Z,5.30
2023-01-10T03:47:33.638Z,5.77
2023-01-10T03:50:27.887Z,5.73
2023-01-10T03:53:15.758Z,5.77
2023-01-10T03:56:03.004Z,5.57
2023-01-10T03:58:49.956Z,6.63
2023-01-10T04:01:36.965Z,6.03
2023-01-10T04:04:24.014Z,6.03
2023-01-10T04:07:11.066Z,5.60
2023-01-10T04:09:58.148Z,6.43
2023-01-10T04:12:45.153Z,6.33
2023-01-10T04:15:32.728Z,6.33
2023-01-10T04:18:19.778Z,6.70
2023-01-10T04:21:09.838Z,7.57
2023-01-10T04:23:56.742Z,7.63
2023-01-10T04:26:43.867Z,7.57
2023-01-10T04:29:30.829Z,7.00
2023-01-10T04:32:17.788Z,8.60
2023-01-10T04:35:05.185Z,8.00
2023-01-10T04:37:52.155Z,8.57
2023-01-10T04:40:39.114Z,8.57
2023-01-10T04:43:26.111Z,8.87
2023-01-10T04:46:13.062Z,8.63
2023-01-10T04:49:00.525Z,10.03
2023-01-10T04:51:47.548Z,8.83
2023-01-10T04:54:34.611Z,9.03
2023-01-10T04:57:21.549Z,9.77
2023-01-10T05:00:09.850Z,10.23
2023-01-10T05:02:58.220Z,9.40
2023-01-10T05:05:45.245Z,9.77
2023-01-10T05:08:32.415Z,10.57
2023-01-10T05:11:19.397Z,10.10
2023-01-10T05:14:06.404Z,9.93
2023-01-10T05:16:53.416Z,9.90
2023-01-10T05:19:40.610Z,10.00
2023-01-10T05:22:27.657Z,11.30
2023-01-10T05:25:14.739Z,10.60
2023-01-10T05:28:01.745Z,10.87
2023-01-10T05:30:48.731Z,10.57
2023-01-10T05:33:36.532Z,12.00
2023-01-10T05:36:23.498Z,12.17
2023-01-10T05:39:10.746Z,12.53
2023-01-10T05:41:57.652Z,11.67
2023-01-10T05:44:44.641Z,11.60
2023-01-10T05:47:31.588Z,11.77
2023-01-10T05:50:19.107Z,12.03
2023-01-10T05:53:07.276Z,13.73
2023-01-10T05:55:59.140Z,12.13
2023-01-10T05:58:47.418Z,12.70
2023-01-10T06:01:36.335Z,12.43
2023-01-10T06:04:23.235Z,12.43
2023-01-10T06:07:10.329Z,12.37
2023-01-10T06:09:57.259Z,13.90
2023-01-10T06:12:44.282Z,12.50
2023-01-10T06:15:32.401Z,12.43
2023-01-10T06:18:19.396Z,12.53
2023-01-10T06:21:06.319Z,12.57
2023-01-10T06:23:53.318Z,12.87
2023-01-10T06:26:40.287Z,13.07
2023-01-10T06:29:27.247Z,12.10
2023-01-10T06:32:14.227Z,12.33
2023-01-10T06:35:01.129Z,10.50
2023-01-10T06:37:48.084Z,11.17
2023-01-10T06:40:35.052Z,10.47
2023-01-10T06:43:22.162Z,10.60
2023-01-10T06:46:10.130Z,10.10
2023-01-10T06:48:57.233Z,10.00
2023-01-10T06:51:44.203Z,10.17
2023-01-10T06:54:31.258Z,9.77
2023-01-10T06:57:18.239Z,10.13
2023-01-10T07:00:07.497Z,9.70
2023-01-10T07:03:02.163Z,8.47
2023-01-10T07:05:49.548Z,8.90
2023-01-10T07:08:41.805Z,8.00
2023-01-10T07:11:28.755Z,8.70
2023-01-10T07:14:15.936Z,8.60
2023-01-10T07:17:03.302Z,8.47
2023-01-10T07:19:50.307Z,8.90
2023-01-10T07:22:37.806Z,9.17
2023-01-10T07:25:26.946Z,8.77
2023-01-10T07:28:14.073Z,8.73
2023-01-10T07:31:02.721Z,8.73
2023-01-10T07:33:52.136Z,9.50
2023-01-10T07:36:39.638Z,9.07
2023-01-10T07:39:26.593Z,8.83
2023-01-10T07:42:13.565Z,10.17
2023-01-10T07:45:00.452Z,9.50
2023-01-10T07:47:47.545Z,11.33
2023-01-10T07:50:35.601Z,11.00
2023-01-10T07:53:22.711Z,10.63
2023-01-10T07:56:09.843Z,12.60
2023-01-10T07:58:56.916Z,12.33
2023-01-10T08:01:43.805Z,12.30
2023-01-10T08:04:30.855Z,13.73
2023-01-10T08:07:17.761Z,13.17
2023-01-10T08:10:07.085Z,13.50
2023-01-10T08:12:54.228Z,14.90
2023-01-10T08:15:41.230Z,15.10
2023-01-10T08:18:28.185Z,15.33
2023-01-10T08:21:15.160Z,15.90
2023-01-10T08:24:02.162Z,16.47
2023-01-10T08:26:49.169Z,16.33
2023-01-10T08:29:36.176Z,17.70
2023-01-10T08:32:23.225Z,18.27
2023-01-10T08:35:11.160Z,18.17
2023-01-10T08:38:00.241Z,18.13
2023-01-10T08:40:47.191Z,18.93
2023-01-10T08:43:34.124Z,18.10
2023-01-10T08:46:21.328Z,17.50
2023-01-10T08:49:09.033Z,17.40
2023-01-10T08:51:56.073Z,17.63
2023-01-10T08:54:43.446Z,18.53
2023-01-10T08:57:32.395Z,17.40
2023-01-10T09:00:19.729Z,17.00
2023-01-10T09:03:07.727Z,18.03
2023-01-10T09:05:54.713Z,17.73
2023-01-10T09:08:41.620Z,17.40
2023-01-10T09:11:29.415Z,16.80
2023-01-10T09:14:16.525Z,17.13
2023-01-10T09:17:03.502Z,15.50
2023-01-10T09:19:50.536Z,16.03
2023-01-10T09:22:38.730Z,15.90
2023-01-10T09:25:26.013Z,15.80
2023-01-10T09:28:15.182Z,15.00
2023-01-10T09:31:04.448Z,16.13
2023-01-10T09:33:51.618Z,16.27
2023-01-10T09:36:38.543Z,16.33
2023-01-10T09:39:25.635Z,14.73
2023-01-10T09:43:08.776Z,15.87
2023-01-10T09:46:02.482Z,15.33
2023-01-10T09:49:39.672Z,16.10
2023-01-10T09:52:32.977Z,14.80
2023-01-10T09:55:33.936Z,15.23
2023-01-10T09:58:27.687Z,15.53
2023-01-10T10:01:21.859Z,14.67
2023-01-10T10:04:11.762Z,15.30
2023-01-10T10:06:59.763Z,15.47
2023-01-10T10:09:46.822Z,14.57
2023-01-10T10:12:49.368Z,15.37
2023-01-10T10:15:54.603Z,14.93
2023-01-10T10:18:59.844Z,13.23
2023-01-10T10:22:10.605Z,12.53
2023-01-10T10:25:19.593Z,13.40
2023-01-10T10:28:34.498Z,13.17
2023-01-10T10:31:47.487Z,12.10
2023-01-10T10:34:41.993Z,12.17
2023-01-10T10:37:35.941Z,13.33
2023-01-10T10:40:26.125Z,13.77
2023-01-10T10:43:28.031Z,14.37
2023-01-10T10:46:19.198Z,14.13
2023-01-10T10:49:42.110Z,13.50
2023-01-10T10:52:32.391Z,14.23
2023-01-10T10:55:25.850Z,14.17
2023-01-10T10:58:14.777Z,14.20
2023-01-10T11:01:02.098Z,14.17
2023-01-10T11:03:57.388Z,13.47
2023-01-10T11:06:49.128Z,13.73
2023-01-10T11:09:40.535Z,13.37
2023-01-10T11:12:36.006Z,14.97
2023-01-10T11:15:38.436Z,12.93
2023-01-10T11:18:27.820Z,11.70
2023-01-10T11:21:19.619Z,11.43
2023-01-10T11:24:30.521Z,11.70
2023-01-10T11:27:24.292Z,12.20
2023-01-10T11:30:21.709Z,11.77
2023-01-10T11:33:20.128Z,12.00
2023-01-10T11:36:09.188Z,11.97
2023-01-10T11:39:02.198Z,12.27
2023-01-10T11:41:49.439Z,12.17
2023-01-10T11:44:43.382Z,14.17
2023-01-10T11:47:32.358Z,12.60
2023-01-10T11:50:28.503Z,14.23
2023-01-10T11:53:38.199Z,14.33
2023-01-10T11:56:36.638Z,13.60
2023-01-10T11:59:25.013Z,13.70
2023-01-10T12:02:24.412Z,13.20
2023-01-10T12:05:18.792Z,14.53
2023-01-10T12:08:08.051Z,14.03
2023-01-10T12:11:07.133Z,14.43
2023-01-10T12:14:00.164Z,13.43
2023-01-10T12:16:49.255Z,13.40
2023-01-10T12:19:36.331Z,15.27
2023-01-10T12:22:30.680Z,14.67
2023-01-10T12:25:21.888Z,14.97
2023-01-10T12:28:23.259Z,14.60
2023-01-10T12:31:15.549Z,13.97
2023-01-10T12:34:15.413Z,13.97
2023-01-10T12:37:37.596Z,14.00
2023-01-10T12:40:45.258Z,13.67
2023-01-10T12:44:01.726Z,13.67
2023-01-10T12:47:08.064Z,12.40
2023-01-10T12:50:25.596Z,12.57
2023-01-10T12:53:18.310Z,13.27
2023-01-10T12:56:10.117Z,11.10
2023-01-10T12:59:03.011Z,11.30
2023-01-10T13:01:54.995Z,10.10
2023-01-10T13:04:47.089Z,9.90
2023-01-10T13:07:36.037Z,10.70
2023-01-10T13:10:25.194Z,9.87
2023-01-10T13:13:42.203Z,8.43
2023-01-10T13:16:53.679Z,8.77
2023-01-10T13:19:40.665Z,9.00
2023-01-10T13:22:28.088Z,7.87
2023-01-10T13:25:25.918Z,8.47
2023-01-10T13:28:31.102Z,7.37
2023-01-10T13:31:35.434Z,8.07
2023-01-10T13:34:25.355Z,8.00
2023-01-10T13:37:21.914Z,6.53
2023-01-10T13:40:21.440Z,6.70
2023-01-10T13:43:37.019Z,7.67
2023-01-10T13:46:24.043Z,7.40
2023-01-10T13:49:10.966Z,7.50
2023-01-10T13:52:20.619Z,6.63
2023-01-10T13:55:40.102Z,6.00
2023-01-10T13:59:00.429Z,6.53
2023-01-10T14:02:13.816Z,6.17
2023-01-10T14:05:17.684Z,5.53
2023-01-10T14:08:17.030Z,6.30
2023-01-10T14:11:11.107Z,5.37
2023-01-10T14:14:02.239Z,5.57
2023-01-10T14:16:53.519Z,6.53
2023-01-10T14:19:43.598Z,6.47
2023-01-10T14:22:33.808Z,5.90
2023-01-10T14:25:22.094Z,6.77
2023-01-10T14:28:40.520Z,6.03
2023-01-10T14:31:28.115Z,5.80
2023-01-10T14:34:28.750Z,6.30
2023-01-10T14:37:28.100Z,5.70
2023-01-10T14:40:23.759Z,5.87
2023-01-10T14:43:20.266Z,5.97
2023-01-10T14:46:20.731Z,5.50
2023-01-10T14:49:26.736Z,5.70
2023-01-10T14:52:19.554Z,5.03
2023-01-10T14:55:20.630Z,5.63
2023-01-10T14:58:17.998Z,4.90
2023-01-10T15:01:05.091Z,4.97
2023-01-10T15:03:54.118Z,5.93
2023-01-10T15:07:00.072Z,5.97
2023-01-10T15:09:52.420Z,5.70
2023-01-10T15:12:39.440Z,6.07
2023-01-10T15:15:38.523Z,6.63
2023-01-10T15:18:39.444Z,5.50
2023-01-10T15:21:27.105Z,5.20
2023-01-10T15:24:43.518Z,5.10
2023-01-10T15:27:31.634Z,5.60
2023-01-10T15:30:21.393Z,5.50
2023-01-10T15:33:24.515Z,5.37
2023-01-10T15:36:17.659Z,4.83
2023-01-10T15:39:04.712Z,5.27
2023-01-10T15:41:58.904Z,4.90
2023-01-10T15:44:52.606Z,4.00
2023-01-10T15:47:48.818Z,4.77
2023-01-10T15:50:53.667Z,4.70
2023-01-10T15:54:04.800Z,5.10
2023-01-10T15:57:16.003Z,5.20
2023-01-10T16:00:03.701Z,4.77
2023-01-10T16:02:51.542Z,4.27
2023-01-10T16:05:38.653Z,4.40
2023-01-10T16:08:30.745Z,3.90
2023-01-10T16:11:41.340Z,3.93
2023-01-10T16:14:28.358Z,4.23
2023-01-10T16:17:15.285Z,3.70
2023-01-10T16:20:02.229Z,3.87
2023-01-10T16:22:50.176Z,3.73
2023-01-10T16:25:39.554Z,3.50
2023-01-10T16:28:30.839Z,3.97
2023-01-10T16:31:17.896Z,3.47
2023-01-10T16:34:05.025Z,3.57
2023-01-10T16:36:52.725Z,3.83
2023-01-10T16:39:39.735Z,3.53
2023-01-10T16:42:45.315Z,3.40
2023-01-10T16:45:32.376Z,3.83
2023-01-10T16:48:20.755Z,3.77
2023-01-10T16:51:18.498Z,3.33
2023-01-10T16:54:05.727Z,3.10
2023-01-10T16:56:52.769Z,3.50
2023-01-10T16:59:40.028Z,3.57
2023-01-10T17:02:27.330Z,3.33
2023-01-10T17:05:16.446Z,3.50
2023-01-10T17:08:04.736Z,3.00
2023-01-10T17:10:56.649Z,3.73
2023-01-10T17:13:45.432Z,3.10
2023-01-10T17:16:33.495Z,3.20
2023-01-10T17:19:21.939Z,3.27
2023-01-10T17:22:09.763Z,3.23
2023-01-10T17:24:56.709Z,2.93
2023-01-10T17:27:44.424Z,2.83
2023-01-10T17:30:31.359Z,3.23
2023-01-10T17:33:18.311Z,2.80
2023-01-10T17:36:05.445Z,3.97
2023-01-10T17:38:52.396Z,3.43
2023-01-10T17:41:39.688Z,3.43
2023-01-10T17:44:26.632Z,2.93
2023-01-10T17:47:13.601Z,2.80
2023-01-10T17:50:00.545Z,3.13
2023-01-10T17:52:47.536Z,3.67
2023-01-10T17:55:34.530Z,3.47
2023-01-10T17:58:21.868Z,2.97
2023-01-10T18:01:25.143Z,3.50
2023-01-10T18:04:12.513Z,2.67
2023-01-10T18:06:59.537Z,3.10
2023-01-10T18:09:46.444Z,2.70
2023-01-10T18:12:33.497Z,3.07
2023-01-10T18:15:20.441Z,3.10
2023-01-10T18:18:07.659Z,3.00
2023-01-10T18:21:04.507Z,3.03
2023-01-10T18:27:09.767Z,3.03
2023-01-10T18:29:59.529Z,2.87
2023-01-10T18:32:46.526Z,3.17
2023-01-10T18:35:36.251Z,3.10
2023-01-10T18:38:25.970Z,3.00
2023-01-10T18:41:16.821Z,3.67
2023-01-10T18:44:05.804Z,3.50
2023-01-10T18:46:54.292Z,4.07
2023-01-10T18:49:48.296Z,3.13
2023-01-10T18:52:49.391Z,2.90
2023-01-10T18:55:55.924Z,2.77
2023-01-10T18:58:46.789Z,3.40
2023-01-10T19:01:37.528Z,3.00
2023-01-10T19:07:11.252Z,2.73
2023-01-10T19:10:03.217Z,2.90
2023-01-10T19:12:52.427Z,2.67
2023-01-10T19:15:51.970Z,3.63
2023-01-10T19:18:42.849Z,3.30
2023-01-10T19:21:41.353Z,3.83
2023-01-10T19:24:36.796Z,3.50
2023-01-10T19:27:33.710Z,4.77
2023-01-10T19:30:22.125Z,21.47
2023-01-10T19:33:18.014Z,3.40
2023-01-10T19:36:07.926Z,4.10
2023-01-10T19:38:57.023Z,3.53
2023-01-10T19:41:45.219Z,3.60
2023-01-10T19:44:32.556Z,6.20
2023-01-10T19:47:20.734Z,3.53
2023-01-10T19:50:08.264Z,3.43
2023-01-10T19:52:55.319Z,3.30
2023-01-10T19:55:42.385Z,2.97
2023-01-10T19:58:29.805Z,3.60
2023-01-10T20:01:20.054Z,4.67
2023-01-10T20:04:07.226Z,5.37
2023-01-10T20:06:54.204Z,3.80
2023-01-10T20:09:41.496Z,3.37
2023-01-10T20:12:28.537Z,3.60
2023-01-10T20:15:16.215Z,3.37
2023-01-10T20:18:03.215Z,3.43
2023-01-10T20:20:50.275Z,3.70
2023-01-10T20:23:38.938Z,3.43
2023-01-10T20:26:30.602Z,3.67
2023-01-10T20:29:18.811Z,3.83
2023-01-10T20:32:05.960Z,4.13
2023-01-10T20:34:53.044Z,4.50
2023-01-10T20:37:40.099Z,3.27
2023-01-10T20:40:27.198Z,3.90
2023-01-10T20:43:14.923Z,3.37
2023-01-10T20:46:29.213Z,4.80
2023-01-10T20:49:16.376Z,4.53
2023-01-10T20:52:03.627Z,4.07
2023-01-10T20:54:50.713Z,4.43
2023-01-10T20:57:37.724Z,4.20
2023-01-10T21:00:24.958Z,4.93
2023-01-10T21:03:12.013Z,4.43
2023-01-10T21:05:59.918Z,4.43
2023-01-10T21:08:47.779Z,4.27
2023-01-10T21:11:44.403Z,4.20
2023-01-10T21:14:39.094Z,4.13
2023-01-10T21:17:26.148Z,4.60
2023-01-10T21:20:13.816Z,3.83
2023-01-10T21:23:00.950Z,4.73
2023-01-10T21:25:48.885Z,4.17
2023-01-10T21:28:38.778Z,3.77
2023-01-10T21:31:25.804Z,3.93
2023-01-10T21:34:12.913Z,3.50
2023-01-10T21:36:59.963Z,3.73
2023-01-10T21:39:47.681Z,3.90
2023-01-10T21:42:34.840Z,3.07
2023-01-10T21:45:22.334Z,2.63
2023-01-10T21:48:09.283Z,3.43
2023-01-10T21:50:57.829Z,3.40
2023-01-10T21:53:45.665Z,3.47
2023-01-10T21:56:32.919Z,2.83
2023-01-10T21:59:20.015Z,2.67
2023-01-10T22:02:12.604Z,3.03
2023-01-10T22:04:59.596Z,3.07
2023-01-10T22:07:46.888Z,2.43
2023-01-10T22:10:34.197Z,2.80
2023-01-10T22:13:21.404Z,2.70
2023-01-10T22:16:08.590Z,2.50
2023-01-10T22:18:55.667Z,2.27
2023-01-10T22:21:43.121Z,2.33
2023-01-10T22:24:30.965Z,1.90
2023-01-10T22:27:20.088Z,2.40
2023-01-10T22:30:07.997Z,3.07
2023-01-10T22:32:56.721Z,2.53
2023-01-10T22:35:44.198Z,2.17
2023-01-10T22:38:33.822Z,2.20
2023-01-10T22:41:27.680Z,2.07
2023-01-10T22:44:19.240Z,2.60
2023-01-10T22:47:06.872Z,2.40
2023-01-10T22:49:54.952Z,2.00
2023-01-10T22:52:42.064Z,2.60
2023-01-10T22:55:29.353Z,1.93
2023-01-10T22:58:16.529Z,2.10
2023-01-10T23:01:04.773Z,3.07
2023-01-10T23:03:52.292Z,2.30
2023-01-10T23:06:39.441Z,1.90
2023-01-10T23:09:26.455Z,2.17
2023-01-10T23:12:13.890Z,1.53
2023-01-10T23:15:00.893Z,1.80
2023-01-10T23:17:48.390Z,1.73
2023-01-10T23:20:36.821Z,1.23
2023-01-10T23:23:25.102Z,1.47
2023-01-10T23:26:13.117Z,1.30
2023-01-10T23:29:00.557Z,1.50
2023-01-10T23:31:52.177Z,1.37
2023-01-10T23:34:39.353Z,1.30
2023-01-10T23:37:27.047Z,1.40
2023-01-10T23:40:15.516Z,1.30
2023-01-10T23:43:03.488Z,1.20
2023-01-10T23:45:52.398Z,1.10
2023-01-10T23:48:40.461Z,1.20
2023-01-10T23:51:27.524Z,1.03
2023-01-10T23:54:14.846Z,1.27
2023-01-10T23:57:01.808Z,0.90
2023-01-10T23:59:48.757Z,1.07
